EIN44D EGLL-EIDW
Flight info
| Callsign | EIN44D |
|---|---|
| Flight time | 0h 51m |
| Altitude | 34000 |
| Route | CPT L9 DIDZA N14 BIBPE DCT OKTAD DCT MEDOG DCT KRAGY DCT PEMOB DCT LEMGU M17 VATRY VATRY4L |
| Aircraft | A320/M-SDE3FGHIRWY/LB1 |
Departure
| Time | 2026-05-05 15:38 |
|---|---|
| Airport | London Heathrow Airport (EGLL) |
Arrival
| Time | 2026-05-05 16:30 |
|---|---|
| Airport | Dublin Airport (EIDW) |
| Time | Latitude | Longitude | Altitude | Speed | Heading |
|---|---|---|---|---|---|
| 2026-05-05 15:05 | 51.46857 | -0.44680 | 86 ft | 0 kts | 267° |
| 2026-05-05 15:26 | 51.46858 | -0.44671 | 86 ft | 4 kts | 266° |
| 2026-05-05 15:26 | 51.46859 | -0.44643 | 90 ft | 4 kts | 262° |
| 2026-05-05 15:26 | 51.46864 | -0.44600 | 88 ft | 4 kts | 250° |
| 2026-05-05 15:27 | 51.46877 | -0.44564 | 89 ft | 4 kts | 216° |
| 2026-05-05 15:27 | 51.46891 | -0.44555 | 88 ft | 1 kts | 180° |
| 2026-05-05 15:27 | 51.46894 | -0.44555 | 88 ft | 0 kts | 180° |
| 2026-05-05 15:30 | 51.46845 | -0.44555 | 87 ft | 8 kts | 180° |
| 2026-05-05 15:30 | 51.46792 | -0.44555 | 89 ft | 7 kts | 181° |
| 2026-05-05 15:30 | 51.46756 | -0.44591 | 86 ft | 7 kts | 238° |
| 2026-05-05 15:30 | 51.46752 | -0.44661 | 86 ft | 8 kts | 270° |
| 2026-05-05 15:31 | 51.46752 | -0.44742 | 86 ft | 7 kts | 270° |
| 2026-05-05 15:31 | 51.46752 | -0.44814 | 86 ft | 6 kts | 271° |
| 2026-05-05 15:31 | 51.46752 | -0.44921 | 86 ft | 13 kts | 270° |
| 2026-05-05 15:31 | 51.46752 | -0.45078 | 86 ft | 15 kts | 269° |
| 2026-05-05 15:32 | 51.46752 | -0.45248 | 86 ft | 16 kts | 268° |
| 2026-05-05 15:32 | 51.46751 | -0.45435 | 86 ft | 18 kts | 269° |
| 2026-05-05 15:32 | 51.46749 | -0.45640 | 86 ft | 19 kts | 269° |
| 2026-05-05 15:32 | 51.46751 | -0.45859 | 86 ft | 20 kts | 270° |
| 2026-05-05 15:33 | 51.46750 | -0.46090 | 86 ft | 16 kts | 269° |
| 2026-05-05 15:33 | 51.46749 | -0.46274 | 86 ft | 17 kts | 269° |
| 2026-05-05 15:33 | 51.46750 | -0.46474 | 86 ft | 19 kts | 270° |
| 2026-05-05 15:33 | 51.46750 | -0.46691 | 86 ft | 20 kts | 269° |
| 2026-05-05 15:34 | 51.46748 | -0.46923 | 86 ft | 21 kts | 270° |
| 2026-05-05 15:34 | 51.46747 | -0.47170 | 89 ft | 23 kts | 269° |
| 2026-05-05 15:34 | 51.46745 | -0.47431 | 86 ft | 24 kts | 270° |
| 2026-05-05 15:34 | 51.46746 | -0.47693 | 86 ft | 14 kts | 272° |
| 2026-05-05 15:35 | 51.46745 | -0.47860 | 86 ft | 16 kts | 271° |
| 2026-05-05 15:35 | 51.46744 | -0.48044 | 86 ft | 17 kts | 269° |
| 2026-05-05 15:35 | 51.46744 | -0.48230 | 86 ft | 10 kts | 271° |
| 2026-05-05 15:35 | 51.46743 | -0.48330 | 86 ft | 8 kts | 270° |
| 2026-05-05 15:36 | 51.46742 | -0.48411 | 86 ft | 6 kts | 261° |
| 2026-05-05 15:36 | 51.46721 | -0.48460 | 87 ft | 7 kts | 211° |
| 2026-05-05 15:36 | 51.46666 | -0.48470 | 86 ft | 8 kts | 182° |
| 2026-05-05 15:36 | 51.46617 | -0.48470 | 86 ft | 6 kts | 179° |
| 2026-05-05 15:37 | 51.46578 | -0.48469 | 86 ft | 5 kts | 179° |
| 2026-05-05 15:37 | 51.46547 | -0.48468 | 86 ft | 4 kts | 179° |
| 2026-05-05 15:37 | 51.46504 | -0.48462 | 86 ft | 8 kts | 163° |
| 2026-05-05 15:37 | 51.46482 | -0.48403 | 87 ft | 7 kts | 92° |
| 2026-05-05 15:38 | 51.46480 | -0.48038 | 87 ft | 70 kts | 89° |
| 2026-05-05 15:38 | 51.46484 | -0.46902 | 90 ft | 131 kts | 91° |
| 2026-05-05 15:38 | 51.46503 | -0.45166 | 112 ft | 175 kts | 89° |
| 2026-05-05 15:38 | 51.46513 | -0.43216 | 727 ft | 174 kts | 88° |
| 2026-05-05 15:39 | 51.46444 | -0.41286 | 1349 ft | 176 kts | 101° |
| 2026-05-05 15:39 | 51.45925 | -0.39385 | 1565 ft | 200 kts | 124° |
| 2026-05-05 15:39 | 51.44808 | -0.37829 | 1855 ft | 229 kts | 151° |
| 2026-05-05 15:39 | 51.43178 | -0.37206 | 2268 ft | 257 kts | 182° |
| 2026-05-05 15:40 | 51.41475 | -0.38066 | 2998 ft | 268 kts | 214° |
| 2026-05-05 15:40 | 51.40244 | -0.40296 | 3849 ft | 272 kts | 248° |
| 2026-05-05 15:40 | 51.39956 | -0.43239 | 4744 ft | 271 kts | 279° |
| 2026-05-05 15:40 | 51.40290 | -0.46215 | 5591 ft | 273 kts | 284° |
| 2026-05-05 15:41 | 51.40659 | -0.49217 | 5942 ft | 275 kts | 283° |
| 2026-05-05 15:41 | 51.41030 | -0.52234 | 6583 ft | 276 kts | 283° |
| 2026-05-05 15:41 | 51.41397 | -0.55256 | 7512 ft | 277 kts | 283° |
| 2026-05-05 15:41 | 51.41763 | -0.58308 | 8375 ft | 280 kts | 282° |
| 2026-05-05 15:42 | 51.42129 | -0.61396 | 9225 ft | 284 kts | 282° |
| 2026-05-05 15:42 | 51.42494 | -0.64519 | 10046 ft | 287 kts | 281° |
| 2026-05-05 15:42 | 51.42872 | -0.67776 | 10430 ft | 308 kts | 282° |
| 2026-05-05 15:42 | 51.43281 | -0.71276 | 10643 ft | 331 kts | 281° |
| 2026-05-05 15:43 | 51.43631 | -0.75026 | 10994 ft | 347 kts | 276° |
| 2026-05-05 15:43 | 51.43952 | -0.78900 | 11632 ft | 353 kts | 280° |
| 2026-05-05 15:43 | 51.44429 | -0.82788 | 12319 ft | 357 kts | 283° |
| 2026-05-05 15:43 | 51.44974 | -0.86691 | 12998 ft | 361 kts | 284° |
| 2026-05-05 15:44 | 51.45528 | -0.90645 | 13666 ft | 366 kts | 283° |
| 2026-05-05 15:44 | 51.46056 | -0.94663 | 14304 ft | 370 kts | 282° |
| 2026-05-05 15:44 | 51.46554 | -0.98714 | 14940 ft | 372 kts | 282° |
| 2026-05-05 15:44 | 51.47024 | -1.02747 | 15578 ft | 374 kts | 281° |
| 2026-05-05 15:45 | 51.47486 | -1.06869 | 16180 ft | 377 kts | 280° |
| 2026-05-05 15:45 | 51.47945 | -1.11033 | 16811 ft | 380 kts | 280° |
| 2026-05-05 15:45 | 51.48421 | -1.15277 | 17424 ft | 383 kts | 282° |
| 2026-05-05 15:45 | 51.49196 | -1.19330 | 18000 ft | 387 kts | 293° |
| 2026-05-05 15:46 | 51.50462 | -1.23144 | 18557 ft | 390 kts | 304° |
| 2026-05-05 15:46 | 51.52180 | -1.26525 | 19103 ft | 392 kts | 314° |
| 2026-05-05 15:46 | 51.54173 | -1.29543 | 19671 ft | 394 kts | 316° |
| 2026-05-05 15:46 | 51.56179 | -1.32560 | 20211 ft | 397 kts | 316° |
| 2026-05-05 15:47 | 51.58194 | -1.35604 | 20768 ft | 399 kts | 315° |
| 2026-05-05 15:47 | 51.59517 | -1.37666 | 21103 ft | 400 kts | 312° |
| 2026-05-05 15:47 | 51.61746 | -1.42454 | 21766 ft | 401 kts | 298° |
| 2026-05-05 15:47 | 51.63070 | -1.46415 | 22272 ft | 403 kts | 296° |
| 2026-05-05 15:48 | 51.64396 | -1.50409 | 22739 ft | 406 kts | 297° |
| 2026-05-05 15:48 | 51.65733 | -1.54424 | 23200 ft | 408 kts | 296° |
| 2026-05-05 15:48 | 51.67076 | -1.58468 | 23640 ft | 411 kts | 296° |
| 2026-05-05 15:48 | 51.68429 | -1.62540 | 24024 ft | 413 kts | 296° |
| 2026-05-05 15:49 | 51.69695 | -1.66708 | 24387 ft | 414 kts | 290° |
| 2026-05-05 15:49 | 51.70539 | -1.71140 | 24763 ft | 414 kts | 281° |
| 2026-05-05 15:49 | 51.70958 | -1.75736 | 25117 ft | 415 kts | 275° |
| 2026-05-05 15:49 | 51.71288 | -1.80374 | 25469 ft | 417 kts | 275° |
| 2026-05-05 15:50 | 51.71646 | -1.85034 | 25819 ft | 420 kts | 278° |
| 2026-05-05 15:50 | 51.72288 | -1.89637 | 26167 ft | 422 kts | 282° |
| 2026-05-05 15:50 | 51.72975 | -1.94197 | 26507 ft | 424 kts | 282° |
| 2026-05-05 15:50 | 51.73670 | -1.98823 | 26857 ft | 425 kts | 282° |
| 2026-05-05 15:51 | 51.74361 | -2.03468 | 27212 ft | 427 kts | 282° |
| 2026-05-05 15:51 | 51.75050 | -2.08141 | 27538 ft | 428 kts | 281° |
| 2026-05-05 15:51 | 51.75739 | -2.12831 | 27852 ft | 430 kts | 281° |
| 2026-05-05 15:51 | 51.76428 | -2.17545 | 28162 ft | 431 kts | 281° |
| 2026-05-05 15:52 | 51.77117 | -2.22259 | 28463 ft | 433 kts | 281° |
| 2026-05-05 15:52 | 51.77807 | -2.27004 | 28749 ft | 434 kts | 281° |
| 2026-05-05 15:52 | 51.78499 | -2.31764 | 29025 ft | 436 kts | 281° |
| 2026-05-05 15:52 | 51.79192 | -2.36536 | 29311 ft | 437 kts | 281° |
| 2026-05-05 15:53 | 51.79884 | -2.41313 | 29577 ft | 438 kts | 281° |
| 2026-05-05 15:53 | 51.80576 | -2.46112 | 29881 ft | 438 kts | 281° |
| 2026-05-05 15:53 | 51.81263 | -2.50900 | 30201 ft | 437 kts | 281° |
| 2026-05-05 15:53 | 51.81951 | -2.55689 | 30477 ft | 437 kts | 281° |
| 2026-05-05 15:54 | 51.82624 | -2.60471 | 30742 ft | 437 kts | 281° |
| 2026-05-05 15:54 | 51.83280 | -2.65269 | 31000 ft | 437 kts | 280° |
| 2026-05-05 15:54 | 51.83923 | -2.70071 | 31258 ft | 437 kts | 280° |
| 2026-05-05 15:54 | 51.84562 | -2.74887 | 31521 ft | 438 kts | 280° |
| 2026-05-05 15:55 | 51.85192 | -2.79633 | 31774 ft | 438 kts | 281° |
| 2026-05-05 15:55 | 51.85841 | -2.84514 | 32073 ft | 438 kts | 280° |
| 2026-05-05 15:55 | 51.86473 | -2.89263 | 32332 ft | 438 kts | 281° |
| 2026-05-05 15:55 | 51.87118 | -2.94087 | 32586 ft | 439 kts | 281° |
| 2026-05-05 15:56 | 51.87763 | -2.98916 | 32839 ft | 439 kts | 281° |
| 2026-05-05 15:56 | 51.88406 | -3.03745 | 33106 ft | 438 kts | 281° |
| 2026-05-05 15:56 | 51.89045 | -3.08562 | 33373 ft | 438 kts | 281° |
| 2026-05-05 15:56 | 51.89680 | -3.13395 | 33597 ft | 439 kts | 281° |
| 2026-05-05 15:57 | 51.90314 | -3.18238 | 33846 ft | 440 kts | 282° |
| 2026-05-05 15:57 | 51.90947 | -3.23091 | 33988 ft | 442 kts | 282° |
| 2026-05-05 15:57 | 51.91578 | -3.27958 | 34012 ft | 441 kts | 282° |
| 2026-05-05 15:58 | 51.92831 | -3.37695 | 34004 ft | 440 kts | 281° |
| 2026-05-05 15:58 | 51.94083 | -3.47427 | 34002 ft | 443 kts | 283° |
| 2026-05-05 15:59 | 51.95333 | -3.57230 | 34009 ft | 445 kts | 283° |
| 2026-05-05 15:59 | 51.96580 | -3.67047 | 34012 ft | 445 kts | 283° |
| 2026-05-05 16:00 | 51.97828 | -3.76873 | 34016 ft | 445 kts | 283° |
| 2026-05-05 16:00 | 51.99049 | -3.86655 | 34014 ft | 445 kts | 283° |
| 2026-05-05 16:01 | 52.00265 | -3.96512 | 34021 ft | 445 kts | 283° |
| 2026-05-05 16:01 | 52.01474 | -4.06366 | 34032 ft | 444 kts | 283° |
| 2026-05-05 16:02 | 52.02674 | -4.16200 | 34039 ft | 444 kts | 282° |
| 2026-05-05 16:02 | 52.03872 | -4.26030 | 34040 ft | 444 kts | 283° |
| 2026-05-05 16:03 | 52.05053 | -4.35853 | 34041 ft | 443 kts | 282° |
| 2026-05-05 16:03 | 52.06221 | -4.45673 | 34031 ft | 443 kts | 282° |
| 2026-05-05 16:04 | 52.07384 | -4.55492 | 34043 ft | 442 kts | 282° |
| 2026-05-05 16:04 | 52.08543 | -4.65291 | 34051 ft | 441 kts | 281° |
| 2026-05-05 16:05 | 52.09679 | -4.75087 | 34057 ft | 441 kts | 281° |
| 2026-05-05 16:05 | 52.10814 | -4.84888 | 34049 ft | 441 kts | 281° |
| 2026-05-05 16:06 | 52.11936 | -4.94622 | 34051 ft | 440 kts | 281° |
| 2026-05-05 16:06 | 52.13073 | -5.04390 | 34062 ft | 438 kts | 284° |
| 2026-05-05 16:06 | 52.14033 | -5.09087 | 34058 ft | 438 kts | 295° |
| 2026-05-05 16:07 | 52.15530 | -5.13398 | 34049 ft | 438 kts | 305° |
| 2026-05-05 16:07 | 52.19847 | -5.20331 | 34056 ft | 439 kts | 325° |
| 2026-05-05 16:08 | 52.25249 | -5.25025 | 34053 ft | 440 kts | 332° |
| 2026-05-05 16:08 | 52.30719 | -5.29513 | 34054 ft | 440 kts | 332° |
| 2026-05-05 16:08 | 52.33460 | -5.31771 | 33842 ft | 442 kts | 332° |
| 2026-05-05 16:09 | 52.36222 | -5.34053 | 32575 ft | 450 kts | 332° |
| 2026-05-05 16:09 | 52.39039 | -5.36387 | 31310 ft | 455 kts | 332° |
| 2026-05-05 16:09 | 52.41860 | -5.38718 | 29521 ft | 456 kts | 331° |
| 2026-05-05 16:09 | 52.44709 | -5.41071 | 27468 ft | 459 kts | 331° |
| 2026-05-05 16:10 | 52.47567 | -5.43438 | 25514 ft | 461 kts | 331° |
| 2026-05-05 16:10 | 52.50426 | -5.45812 | 23693 ft | 460 kts | 331° |
| 2026-05-05 16:10 | 52.53276 | -5.48184 | 21670 ft | 459 kts | 332° |
| 2026-05-05 16:10 | 52.56155 | -5.50309 | 20433 ft | 447 kts | 339° |
| 2026-05-05 16:11 | 52.59049 | -5.51785 | 19818 ft | 423 kts | 341° |
| 2026-05-05 16:11 | 52.66950 | -5.55850 | 19168 ft | 386 kts | 340° |
| 2026-05-05 16:12 | 52.69512 | -5.57194 | 19044 ft | 386 kts | 340° |
| 2026-05-05 16:12 | 52.74622 | -5.59856 | 19066 ft | 385 kts | 341° |
| 2026-05-05 16:13 | 52.82293 | -5.63808 | 19066 ft | 385 kts | 341° |
| 2026-05-05 16:13 | 52.83990 | -5.64685 | 19066 ft | 385 kts | 341° |
| 2026-05-05 16:13 | 52.87408 | -5.66455 | 19076 ft | 385 kts | 341° |
| 2026-05-05 16:14 | 52.91647 | -5.68659 | 18886 ft | 383 kts | 341° |
| 2026-05-05 16:14 | 52.96832 | -5.71374 | 17102 ft | 394 kts | 341° |
| 2026-05-05 16:15 | 53.02031 | -5.74085 | 15919 ft | 388 kts | 341° |
| 2026-05-05 16:15 | 53.07129 | -5.76752 | 14769 ft | 378 kts | 341° |
| 2026-05-05 16:16 | 53.11732 | -5.80222 | 13342 ft | 352 kts | 319° |
| 2026-05-05 16:16 | 53.14455 | -5.86749 | 12374 ft | 344 kts | 295° |
| 2026-05-05 16:17 | 53.16418 | -5.93963 | 11308 ft | 340 kts | 295° |
| 2026-05-05 16:17 | 53.17384 | -5.97545 | 10785 ft | 337 kts | 295° |
| 2026-05-05 16:18 | 53.19293 | -6.04650 | 10078 ft | 333 kts | 295° |
| 2026-05-05 16:18 | 53.20215 | -6.08081 | 10070 ft | 315 kts | 295° |
| 2026-05-05 16:18 | 53.21904 | -6.14373 | 10068 ft | 285 kts | 295° |
| 2026-05-05 16:19 | 53.22709 | -6.17367 | 10078 ft | 282 kts | 296° |
| 2026-05-05 16:19 | 53.23513 | -6.20354 | 10082 ft | 283 kts | 295° |
| 2026-05-05 16:19 | 53.25115 | -6.26333 | 10082 ft | 282 kts | 295° |
| 2026-05-05 16:20 | 53.26709 | -6.32308 | 10085 ft | 281 kts | 295° |
| 2026-05-05 16:20 | 53.28303 | -6.38290 | 10083 ft | 283 kts | 295° |
| 2026-05-05 16:21 | 53.29888 | -6.44262 | 10075 ft | 284 kts | 295° |
| 2026-05-05 16:22 | 53.32294 | -6.53368 | 8871 ft | 281 kts | 295° |
| 2026-05-05 16:22 | 53.33856 | -6.59293 | 8104 ft | 276 kts | 295° |
| 2026-05-05 16:23 | 53.35353 | -6.64997 | 7732 ft | 257 kts | 296° |
| 2026-05-05 16:23 | 53.36332 | -6.67383 | 7604 ft | 244 kts | 318° |
| 2026-05-05 16:23 | 53.39380 | -6.69149 | 7007 ft | 238 kts | 3° |
| 2026-05-05 16:24 | 53.41031 | -6.68889 | 6532 ft | 241 kts | 4° |
| 2026-05-05 16:24 | 53.42703 | -6.68624 | 5856 ft | 242 kts | 4° |
| 2026-05-05 16:24 | 53.45525 | -6.66257 | 4933 ft | 235 kts | 62° |
| 2026-05-05 16:25 | 53.45735 | -6.63574 | 4519 ft | 234 kts | 96° |
| 2026-05-05 16:25 | 53.45323 | -6.58350 | 3912 ft | 215 kts | 92° |
| 2026-05-05 16:25 | 53.45196 | -6.55923 | 3600 ft | 202 kts | 92° |
| 2026-05-05 16:26 | 53.44973 | -6.51641 | 3091 ft | 170 kts | 91° |
| 2026-05-05 16:26 | 53.44771 | -6.47766 | 2627 ft | 165 kts | 91° |
| 2026-05-05 16:27 | 53.44670 | -6.45851 | 2404 ft | 164 kts | 92° |
| 2026-05-05 16:27 | 53.44570 | -6.43962 | 2199 ft | 161 kts | 91° |
| 2026-05-05 16:27 | 53.44472 | -6.42124 | 1971 ft | 160 kts | 94° |
| 2026-05-05 16:27 | 53.44373 | -6.40275 | 1755 ft | 159 kts | 93° |
| 2026-05-05 16:28 | 53.44278 | -6.38500 | 1531 ft | 148 kts | 93° |
| 2026-05-05 16:28 | 53.44187 | -6.36812 | 1328 ft | 143 kts | 92° |
| 2026-05-05 16:28 | 53.44093 | -6.35158 | 1133 ft | 141 kts | 94° |
| 2026-05-05 16:28 | 53.44009 | -6.33505 | 965 ft | 142 kts | 92° |
| 2026-05-05 16:29 | 53.43934 | -6.31849 | 737 ft | 143 kts | 93° |
| 2026-05-05 16:29 | 53.43834 | -6.30199 | 506 ft | 140 kts | 95° |
| 2026-05-05 16:29 | 53.43750 | -6.28585 | 309 ft | 139 kts | 93° |
| 2026-05-05 16:29 | 53.43658 | -6.27033 | 212 ft | 123 kts | 95° |
| 2026-05-05 16:30 | 53.43602 | -6.25969 | 214 ft | 50 kts | 95° |
| 2026-05-05 16:30 | 53.43574 | -6.25502 | 215 ft | 26 kts | 100° |
| 2026-05-05 16:30 | 53.43537 | -6.25269 | 212 ft | 15 kts | 110° |
| 2026-05-05 16:30 | 53.43485 | -6.25122 | 212 ft | 14 kts | 109° |
| 2026-05-05 16:31 | 53.43443 | -6.24990 | 215 ft | 11 kts | 133° |
| 2026-05-05 16:31 | 53.43386 | -6.25014 | 219 ft | 9 kts | 233° |
| 2026-05-05 16:31 | 53.43381 | -6.25108 | 211 ft | 11 kts | 273° |
| 2026-05-05 16:31 | 53.43390 | -6.25278 | 214 ft | 15 kts | 275° |
| 2026-05-05 16:32 | 53.43401 | -6.25439 | 211 ft | 13 kts | 277° |
| 2026-05-05 16:32 | 53.43409 | -6.25568 | 211 ft | 9 kts | 273° |
| 2026-05-05 16:32 | 53.43384 | -6.25648 | 211 ft | 7 kts | 211° |
| 2026-05-05 16:32 | 53.43340 | -6.25638 | 216 ft | 6 kts | 154° |
| 2026-05-05 16:33 | 53.43303 | -6.25611 | 211 ft | 6 kts | 156° |
| 2026-05-05 16:33 | 53.43227 | -6.25556 | 211 ft | 14 kts | 158° |
| 2026-05-05 16:33 | 53.43145 | -6.25497 | 212 ft | 12 kts | 156° |
| 2026-05-05 16:33 | 53.43073 | -6.25447 | 217 ft | 10 kts | 156° |
| 2026-05-05 16:34 | 53.43012 | -6.25401 | 211 ft | 9 kts | 156° |
| 2026-05-05 16:34 | 53.42952 | -6.25357 | 215 ft | 14 kts | 156° |
| 2026-05-05 16:34 | 53.42847 | -6.25280 | 211 ft | 14 kts | 156° |
| 2026-05-05 16:34 | 53.42769 | -6.25224 | 212 ft | 7 kts | 156° |
| 2026-05-05 16:35 | 53.42727 | -6.25191 | 211 ft | 6 kts | 146° |
| 2026-05-05 16:35 | 53.42705 | -6.25143 | 211 ft | 5 kts | 125° |
| 2026-05-05 16:35 | 53.42685 | -6.25103 | 211 ft | 4 kts | 134° |
| 2026-05-05 16:35 | 53.42658 | -6.25076 | 211 ft | 8 kts | 155° |
| 2026-05-05 16:36 | 53.42590 | -6.25026 | 211 ft | 10 kts | 157° |
| 2026-05-05 16:36 | 53.42528 | -6.24981 | 214 ft | 9 kts | 156° |
| 2026-05-05 16:36 | 53.42473 | -6.24942 | 213 ft | 8 kts | 157° |
| 2026-05-05 16:36 | 53.42424 | -6.24908 | 212 ft | 7 kts | 157° |
| 2026-05-05 16:37 | 53.42382 | -6.24877 | 211 ft | 6 kts | 155° |
| 2026-05-05 16:37 | 53.42357 | -6.24832 | 211 ft | 5 kts | 105° |
| 2026-05-05 16:37 | 53.42361 | -6.24785 | 211 ft | 4 kts | 72° |
| 2026-05-05 16:37 | 53.42371 | -6.24756 | 213 ft | 2 kts | 54° |
| 2026-05-05 16:38 | 53.42378 | -6.24742 | 217 ft | 1 kts | 51° |
| 2026-05-05 16:38 | 53.42380 | -6.24737 | 211 ft | 0 kts | 51° |
| 2026-05-05 16:38 | 53.42372 | -6.24465 | 211 ft | 0 kts | 135° |
| 2026-05-05 16:40 | 53.42373 | -6.24465 | 211 ft | 0 kts | 135° |